sensor_id;sensor_type;location;lat;lon;timestamp;P1;durP1;ratioP1;P2;durP2;ratioP2
13868;SDS011;7004;48.206;16.402;2022-08-01T00:01:47;5.23;;;4.83;;
13868;SDS011;7004;48.206;16.402;2022-08-01T00:04:14;5.63;;;5.13;;
13868;SDS011;7004;48.206;16.402;2022-08-01T00:06:40;6.00;;;5.30;;
13868;SDS011;7004;48.206;16.402;2022-08-01T00:09:06;6.40;;;5.17;;
13868;SDS011;7004;48.206;16.402;2022-08-01T00:11:32;5.23;;;4.73;;
13868;SDS011;7004;48.206;16.402;2022-08-01T00:13:59;5.57;;;4.87;;
13868;SDS011;7004;48.206;16.402;2022-08-01T00:16:25;6.63;;;5.67;;
13868;SDS011;7004;48.206;16.402;2022-08-01T00:18:51;5.60;;;5.10;;
13868;SDS011;7004;48.206;16.402;2022-08-01T00:21:19;5.43;;;4.90;;
13868;SDS011;7004;48.206;16.402;2022-08-01T00:23:45;10.13;;;5.43;;
13868;SDS011;7004;48.206;16.402;2022-08-01T00:26:12;5.70;;;5.10;;
13868;SDS011;7004;48.206;16.402;2022-08-01T00:28:39;5.70;;;5.07;;
13868;SDS011;7004;48.206;16.402;2022-08-01T00:31:06;7.10;;;5.00;;
13868;SDS011;7004;48.206;16.402;2022-08-01T00:33:33;5.27;;;4.77;;
13868;SDS011;7004;48.206;16.402;2022-08-01T00:35:59;6.77;;;5.00;;
13868;SDS011;7004;48.206;16.402;2022-08-01T00:38:25;5.57;;;5.07;;
13868;SDS011;7004;48.206;16.402;2022-08-01T00:40:51;7.87;;;5.00;;
13868;SDS011;7004;48.206;16.402;2022-08-01T00:43:17;5.73;;;5.13;;
13868;SDS011;7004;48.206;16.402;2022-08-01T00:45:43;5.40;;;4.87;;
13868;SDS011;7004;48.206;16.402;2022-08-01T00:48:09;6.27;;;5.27;;
13868;SDS011;7004;48.206;16.402;2022-08-01T00:50:36;5.40;;;4.90;;
13868;SDS011;7004;48.206;16.402;2022-08-01T00:53:03;7.00;;;5.00;;
13868;SDS011;7004;48.206;16.402;2022-08-01T00:55:30;7.47;;;5.17;;
13868;SDS011;7004;48.206;16.402;2022-08-01T00:57:57;7.53;;;5.30;;
13868;SDS011;7004;48.206;16.402;2022-08-01T01:00:24;5.80;;;5.30;;
13868;SDS011;7004;48.206;16.402;2022-08-01T01:02:51;5.77;;;5.23;;
13868;SDS011;7004;48.206;16.402;2022-08-01T01:05:18;5.43;;;4.93;;
13868;SDS011;7004;48.206;16.402;2022-08-01T01:08:07;5.77;;;5.17;;
13868;SDS011;7004;48.206;16.402;2022-08-01T01:10:51;6.43;;;5.20;;
13868;SDS011;7004;48.206;16.402;2022-08-01T01:16:15;7.30;;;5.63;;
13868;SDS011;7004;48.206;16.402;2022-08-01T01:18:46;7.10;;;4.57;;
13868;SDS011;7004;48.206;16.402;2022-08-01T01:27:01;5.60;;;5.07;;
13868;SDS011;7004;48.206;16.402;2022-08-01T01:29:45;6.13;;;4.73;;
13868;SDS011;7004;48.206;16.402;2022-08-01T01:32:35;5.80;;;5.20;;
13868;SDS011;7004;48.206;16.402;2022-08-01T01:38:09;5.20;;;4.70;;
13868;SDS011;7004;48.206;16.402;2022-08-01T01:40:42;5.43;;;4.93;;
13868;SDS011;7004;48.206;16.402;2022-08-01T01:43:11;8.70;;;4.57;;
13868;SDS011;7004;48.206;16.402;2022-08-01T01:45:39;5.30;;;4.80;;
13868;SDS011;7004;48.206;16.402;2022-08-01T01:48:07;5.33;;;4.90;;
13868;SDS011;7004;48.206;16.402;2022-08-01T01:50:35;5.33;;;4.60;;
13868;SDS011;7004;48.206;16.402;2022-08-01T01:53:03;5.33;;;4.80;;
13868;SDS011;7004;48.206;16.402;2022-08-01T01:55:31;5.50;;;5.00;;
13868;SDS011;7004;48.206;16.402;2022-08-01T01:57:57;4.97;;;4.40;;
13868;SDS011;7004;48.206;16.402;2022-08-01T02:00:25;5.50;;;5.00;;
13868;SDS011;7004;48.206;16.402;2022-08-01T02:02:54;5.17;;;4.60;;
13868;SDS011;7004;48.206;16.402;2022-08-01T02:05:22;5.00;;;4.50;;
13868;SDS011;7004;48.206;16.402;2022-08-01T02:07:50;5.90;;;4.70;;
13868;SDS011;7004;48.206;16.402;2022-08-01T02:10:18;4.53;;;4.23;;
13868;SDS011;7004;48.206;16.402;2022-08-01T02:12:45;5.60;;;5.10;;
13868;SDS011;7004;48.206;16.402;2022-08-01T02:15:15;5.13;;;4.40;;
13868;SDS011;7004;48.206;16.402;2022-08-01T02:17:44;5.20;;;4.53;;
13868;SDS011;7004;48.206;16.402;2022-08-01T02:20:14;8.47;;;4.70;;
13868;SDS011;7004;48.206;16.402;2022-08-01T02:22:44;6.17;;;4.30;;
13868;SDS011;7004;48.206;16.402;2022-08-01T02:25:22;5.30;;;4.80;;
13868;SDS011;7004;48.206;16.402;2022-08-01T02:28:01;7.10;;;4.47;;
13868;SDS011;7004;48.206;16.402;2022-08-01T02:30:32;4.90;;;4.40;;
13868;SDS011;7004;48.206;16.402;2022-08-01T02:35:52;4.77;;;4.37;;
13868;SDS011;7004;48.206;16.402;2022-08-01T02:38:24;4.53;;;4.17;;
13868;SDS011;7004;48.206;16.402;2022-08-01T02:40:54;5.10;;;4.63;;
13868;SDS011;7004;48.206;16.402;2022-08-01T02:43:26;5.00;;;4.60;;
13868;SDS011;7004;48.206;16.402;2022-08-01T02:45:56;5.50;;;5.10;;
13868;SDS011;7004;48.206;16.402;2022-08-01T02:48:26;5.23;;;4.80;;
13868;SDS011;7004;48.206;16.402;2022-08-01T02:50:55;5.73;;;5.13;;
13868;SDS011;7004;48.206;16.402;2022-08-01T02:53:25;5.73;;;5.23;;
13868;SDS011;7004;48.206;16.402;2022-08-01T02:55:55;7.47;;;4.97;;
13868;SDS011;7004;48.206;16.402;2022-08-01T02:58:22;5.97;;;4.87;;
13868;SDS011;7004;48.206;16.402;2022-08-01T03:00:49;5.27;;;4.63;;
13868;SDS011;7004;48.206;16.402;2022-08-01T03:03:17;4.90;;;4.23;;
13868;SDS011;7004;48.206;16.402;2022-08-01T03:05:45;4.67;;;4.27;;
13868;SDS011;7004;48.206;16.402;2022-08-01T03:08:13;5.43;;;4.27;;
13868;SDS011;7004;48.206;16.402;2022-08-01T03:10:43;5.13;;;4.33;;
13868;SDS011;7004;48.206;16.402;2022-08-01T03:13:11;6.00;;;4.77;;
13868;SDS011;7004;48.206;16.402;2022-08-01T03:15:39;5.80;;;4.40;;
13868;SDS011;7004;48.206;16.402;2022-08-01T03:18:07;5.97;;;5.37;;
13868;SDS011;7004;48.206;16.402;2022-08-01T03:20:35;5.27;;;4.70;;
13868;SDS011;7004;48.206;16.402;2022-08-01T03:23:03;6.67;;;4.80;;
13868;SDS011;7004;48.206;16.402;2022-08-01T03:25:34;5.43;;;4.83;;
13868;SDS011;7004;48.206;16.402;2022-08-01T03:28:08;6.87;;;4.97;;
13868;SDS011;7004;48.206;16.402;2022-08-01T03:30:37;5.00;;;4.57;;
13868;SDS011;7004;48.206;16.402;2022-08-01T03:33:05;5.43;;;4.57;;
13868;SDS011;7004;48.206;16.402;2022-08-01T03:35:48;5.80;;;5.17;;
13868;SDS011;7004;48.206;16.402;2022-08-01T03:38:19;6.07;;;5.47;;
13868;SDS011;7004;48.206;16.402;2022-08-01T03:40:58;8.80;;;5.37;;
13868;SDS011;7004;48.206;16.402;2022-08-01T03:43:37;6.47;;;4.87;;
13868;SDS011;7004;48.206;16.402;2022-08-01T03:46:13;5.70;;;5.00;;
13868;SDS011;7004;48.206;16.402;2022-08-01T03:48:47;6.23;;;4.53;;
13868;SDS011;7004;48.206;16.402;2022-08-01T03:51:15;4.40;;;4.00;;
13868;SDS011;7004;48.206;16.402;2022-08-01T03:53:45;6.23;;;4.40;;
13868;SDS011;7004;48.206;16.402;2022-08-01T03:56:13;7.43;;;4.80;;
13868;SDS011;7004;48.206;16.402;2022-08-01T03:58:45;6.40;;;4.83;;
13868;SDS011;7004;48.206;16.402;2022-08-01T04:01:12;4.90;;;4.50;;
13868;SDS011;7004;48.206;16.402;2022-08-01T04:03:39;7.67;;;4.97;;
13868;SDS011;7004;48.206;16.402;2022-08-01T04:06:07;5.10;;;4.60;;
13868;SDS011;7004;48.206;16.402;2022-08-01T04:08:38;5.30;;;4.80;;
13868;SDS011;7004;48.206;16.402;2022-08-01T04:11:07;6.00;;;4.33;;
13868;SDS011;7004;48.206;16.402;2022-08-01T04:13:35;4.77;;;4.37;;
13868;SDS011;7004;48.206;16.402;2022-08-01T04:16:01;5.03;;;4.53;;
13868;SDS011;7004;48.206;16.402;2022-08-01T04:18:27;4.43;;;3.90;;
13868;SDS011;7004;48.206;16.402;2022-08-01T04:20:53;4.60;;;4.20;;
13868;SDS011;7004;48.206;16.402;2022-08-01T04:23:20;5.50;;;4.43;;
13868;SDS011;7004;48.206;16.402;2022-08-01T04:25:50;4.57;;;4.10;;
13868;SDS011;7004;48.206;16.402;2022-08-01T04:28:17;7.43;;;4.57;;
13868;SDS011;7004;48.206;16.402;2022-08-01T04:30:46;6.07;;;4.33;;
13868;SDS011;7004;48.206;16.402;2022-08-01T04:33:15;6.30;;;4.20;;
13868;SDS011;7004;48.206;16.402;2022-08-01T04:35:45;4.73;;;3.93;;
13868;SDS011;7004;48.206;16.402;2022-08-01T04:38:14;4.70;;;4.20;;
13868;SDS011;7004;48.206;16.402;2022-08-01T04:40:52;7.30;;;3.80;;
13868;SDS011;7004;48.206;16.402;2022-08-01T04:43:20;4.27;;;3.87;;
13868;SDS011;7004;48.206;16.402;2022-08-01T04:45:47;4.17;;;3.77;;
13868;SDS011;7004;48.206;16.402;2022-08-01T04:48:15;4.53;;;4.13;;
13868;SDS011;7004;48.206;16.402;2022-08-01T04:50:45;5.77;;;4.00;;
13868;SDS011;7004;48.206;16.402;2022-08-01T04:53:14;5.50;;;3.50;;
13868;SDS011;7004;48.206;16.402;2022-08-01T04:55:43;5.80;;;3.90;;
13868;SDS011;7004;48.206;16.402;2022-08-01T04:58:14;5.40;;;3.80;;
13868;SDS011;7004;48.206;16.402;2022-08-01T05:00:41;7.27;;;4.30;;
13868;SDS011;7004;48.206;16.402;2022-08-01T05:03:07;4.80;;;4.40;;
13868;SDS011;7004;48.206;16.402;2022-08-01T05:05:34;5.33;;;4.53;;
13868;SDS011;7004;48.206;16.402;2022-08-01T05:08:00;7.20;;;4.27;;
13868;SDS011;7004;48.206;16.402;2022-08-01T05:10:26;6.83;;;4.83;;
13868;SDS011;7004;48.206;16.402;2022-08-01T05:12:53;7.73;;;4.73;;
13868;SDS011;7004;48.206;16.402;2022-08-01T05:15:19;11.17;;;5.10;;
13868;SDS011;7004;48.206;16.402;2022-08-01T05:17:46;7.10;;;5.03;;
13868;SDS011;7004;48.206;16.402;2022-08-01T05:20:13;6.93;;;5.10;;
13868;SDS011;7004;48.206;16.402;2022-08-01T05:22:39;7.07;;;4.87;;
13868;SDS011;7004;48.206;16.402;2022-08-01T05:25:06;7.63;;;4.73;;
13868;SDS011;7004;48.206;16.402;2022-08-01T05:27:33;8.57;;;5.30;;
13868;SDS011;7004;48.206;16.402;2022-08-01T05:30:07;8.17;;;4.97;;
13868;SDS011;7004;48.206;16.402;2022-08-01T05:32:35;5.60;;;5.03;;
13868;SDS011;7004;48.206;16.402;2022-08-01T05:35:02;9.10;;;5.10;;
13868;SDS011;7004;48.206;16.402;2022-08-01T05:37:28;8.13;;;4.93;;
13868;SDS011;7004;48.206;16.402;2022-08-01T05:39:54;11.13;;;5.17;;
13868;SDS011;7004;48.206;16.402;2022-08-01T05:42:21;6.70;;;5.10;;
13868;SDS011;7004;48.206;16.402;2022-08-01T05:44:47;8.23;;;5.00;;
13868;SDS011;7004;48.206;16.402;2022-08-01T05:47:13;7.90;;;5.40;;
13868;SDS011;7004;48.206;16.402;2022-08-01T05:49:40;10.77;;;5.83;;
13868;SDS011;7004;48.206;16.402;2022-08-01T05:52:06;6.10;;;5.50;;
13868;SDS011;7004;48.206;16.402;2022-08-01T05:54:32;8.60;;;5.50;;
13868;SDS011;7004;48.206;16.402;2022-08-01T05:56:58;9.10;;;5.37;;
13868;SDS011;7004;48.206;16.402;2022-08-01T05:59:27;9.43;;;5.27;;
13868;SDS011;7004;48.206;16.402;2022-08-01T06:01:54;7.43;;;5.63;;
13868;SDS011;7004;48.206;16.402;2022-08-01T06:04:20;10.40;;;5.53;;
13868;SDS011;7004;48.206;16.402;2022-08-01T06:06:46;15.47;;;5.87;;
13868;SDS011;7004;48.206;16.402;2022-08-01T06:09:13;6.67;;;5.60;;
13868;SDS011;7004;48.206;16.402;2022-08-01T06:11:39;8.87;;;5.10;;
13868;SDS011;7004;48.206;16.402;2022-08-01T06:14:06;6.07;;;4.50;;
13868;SDS011;7004;48.206;16.402;2022-08-01T06:16:32;6.63;;;5.47;;
13868;SDS011;7004;48.206;16.402;2022-08-01T06:18:58;9.10;;;5.00;;
13868;SDS011;7004;48.206;16.402;2022-08-01T06:21:25;7.23;;;5.17;;
13868;SDS011;7004;48.206;16.402;2022-08-01T06:23:52;6.73;;;4.60;;
13868;SDS011;7004;48.206;16.402;2022-08-01T06:26:18;7.43;;;4.30;;
13868;SDS011;7004;48.206;16.402;2022-08-01T06:28:45;6.83;;;4.27;;
13868;SDS011;7004;48.206;16.402;2022-08-01T06:31:11;7.13;;;4.77;;
13868;SDS011;7004;48.206;16.402;2022-08-01T06:33:40;5.87;;;4.20;;
13868;SDS011;7004;48.206;16.402;2022-08-01T06:36:06;5.83;;;4.03;;
13868;SDS011;7004;48.206;16.402;2022-08-01T06:38:32;5.50;;;4.50;;
13868;SDS011;7004;48.206;16.402;2022-08-01T06:40:58;6.30;;;4.20;;
13868;SDS011;7004;48.206;16.402;2022-08-01T06:43:23;6.63;;;4.33;;
13868;SDS011;7004;48.206;16.402;2022-08-01T06:45:49;8.10;;;4.30;;
13868;SDS011;7004;48.206;16.402;2022-08-01T06:48:16;7.30;;;3.80;;
13868;SDS011;7004;48.206;16.402;2022-08-01T06:50:44;5.47;;;4.47;;
13868;SDS011;7004;48.206;16.402;2022-08-01T06:53:10;8.10;;;4.10;;
13868;SDS011;7004;48.206;16.402;2022-08-01T06:55:37;4.53;;;4.10;;
13868;SDS011;7004;48.206;16.402;2022-08-01T06:58:04;5.53;;;4.20;;
13868;SDS011;7004;48.206;16.402;2022-08-01T07:00:30;4.80;;;3.77;;
13868;SDS011;7004;48.206;16.402;2022-08-01T07:02:57;4.53;;;3.40;;
13868;SDS011;7004;48.206;16.402;2022-08-01T07:05:26;6.37;;;3.53;;
13868;SDS011;7004;48.206;16.402;2022-08-01T07:07:52;3.80;;;3.30;;
13868;SDS011;7004;48.206;16.402;2022-08-01T07:10:19;4.37;;;3.57;;
13868;SDS011;7004;48.206;16.402;2022-08-01T07:12:45;5.50;;;3.40;;
13868;SDS011;7004;48.206;16.402;2022-08-01T07:15:11;3.87;;;3.47;;
13868;SDS011;7004;48.206;16.402;2022-08-01T07:17:38;4.13;;;3.47;;
13868;SDS011;7004;48.206;16.402;2022-08-01T07:20:10;3.97;;;3.47;;
13868;SDS011;7004;48.206;16.402;2022-08-01T07:22:38;3.80;;;3.40;;
13868;SDS011;7004;48.206;16.402;2022-08-01T07:25:05;4.23;;;3.77;;
13868;SDS011;7004;48.206;16.402;2022-08-01T07:27:33;4.00;;;3.60;;
13868;SDS011;7004;48.206;16.402;2022-08-01T07:30:00;4.73;;;3.57;;
13868;SDS011;7004;48.206;16.402;2022-08-01T07:32:27;5.53;;;3.50;;
13868;SDS011;7004;48.206;16.402;2022-08-01T07:34:54;6.23;;;3.40;;
13868;SDS011;7004;48.206;16.402;2022-08-01T07:37:21;4.47;;;3.20;;
13868;SDS011;7004;48.206;16.402;2022-08-01T07:39:49;6.33;;;3.67;;
13868;SDS011;7004;48.206;16.402;2022-08-01T07:42:15;5.87;;;3.73;;
13868;SDS011;7004;48.206;16.402;2022-08-01T07:44:41;4.73;;;3.67;;
13868;SDS011;7004;48.206;16.402;2022-08-01T07:47:07;4.63;;;3.57;;
13868;SDS011;7004;48.206;16.402;2022-08-01T07:49:34;5.63;;;4.00;;
13868;SDS011;7004;48.206;16.402;2022-08-01T07:52:02;8.27;;;4.20;;
13868;SDS011;7004;48.206;16.402;2022-08-01T07:54:29;8.87;;;4.00;;
13868;SDS011;7004;48.206;16.402;2022-08-01T07:56:56;9.37;;;4.23;;
13868;SDS011;7004;48.206;16.402;2022-08-01T07:59:22;4.53;;;3.80;;
13868;SDS011;7004;48.206;16.402;2022-08-01T08:01:51;8.30;;;4.20;;
13868;SDS011;7004;48.206;16.402;2022-08-01T08:04:19;4.83;;;4.30;;
13868;SDS011;7004;48.206;16.402;2022-08-01T08:06:45;7.33;;;4.30;;
13868;SDS011;7004;48.206;16.402;2022-08-01T08:09:13;7.73;;;4.60;;
13868;SDS011;7004;48.206;16.402;2022-08-01T08:11:41;5.87;;;4.40;;
13868;SDS011;7004;48.206;16.402;2022-08-01T08:14:11;5.03;;;4.23;;
13868;SDS011;7004;48.206;16.402;2022-08-01T08:16:38;7.87;;;4.30;;
13868;SDS011;7004;48.206;16.402;2022-08-01T08:19:05;6.33;;;4.40;;
13868;SDS011;7004;48.206;16.402;2022-08-01T08:21:31;8.90;;;4.10;;
13868;SDS011;7004;48.206;16.402;2022-08-01T08:23:58;4.37;;;3.97;;
13868;SDS011;7004;48.206;16.402;2022-08-01T08:26:43;5.87;;;4.30;;
13868;SDS011;7004;48.206;16.402;2022-08-01T08:29:09;4.80;;;4.10;;
13868;SDS011;7004;48.206;16.402;2022-08-01T08:31:35;6.87;;;4.07;;
13868;SDS011;7004;48.206;16.402;2022-08-01T08:34:01;5.80;;;4.13;;
13868;SDS011;7004;48.206;16.402;2022-08-01T08:36:27;6.17;;;4.03;;
13868;SDS011;7004;48.206;16.402;2022-08-01T08:38:54;9.00;;;4.53;;
13868;SDS011;7004;48.206;16.402;2022-08-01T08:41:21;8.67;;;4.43;;
13868;SDS011;7004;48.206;16.402;2022-08-01T08:43:48;4.63;;;3.60;;
13868;SDS011;7004;48.206;16.402;2022-08-01T08:46:14;3.70;;;3.40;;
13868;SDS011;7004;48.206;16.402;2022-08-01T08:48:41;4.37;;;3.70;;
13868;SDS011;7004;48.206;16.402;2022-08-01T08:51:08;4.67;;;3.30;;
13868;SDS011;7004;48.206;16.402;2022-08-01T08:53:37;5.20;;;3.30;;
13868;SDS011;7004;48.206;16.402;2022-08-01T08:56:10;6.03;;;3.60;;
13868;SDS011;7004;48.206;16.402;2022-08-01T08:58:38;6.93;;;3.77;;
13868;SDS011;7004;48.206;16.402;2022-08-01T09:01:08;4.23;;;3.83;;
13868;SDS011;7004;48.206;16.402;2022-08-01T09:03:35;5.37;;;3.40;;
13868;SDS011;7004;48.206;16.402;2022-08-01T09:06:01;4.67;;;3.20;;
13868;SDS011;7004;48.206;16.402;2022-08-01T09:08:28;5.83;;;3.23;;
13868;SDS011;7004;48.206;16.402;2022-08-01T09:10:55;5.47;;;3.30;;
13868;SDS011;7004;48.206;16.402;2022-08-01T09:13:22;4.60;;;3.37;;
13868;SDS011;7004;48.206;16.402;2022-08-01T09:15:52;3.73;;;3.43;;
13868;SDS011;7004;48.206;16.402;2022-08-01T09:18:37;4.93;;;3.37;;
13868;SDS011;7004;48.206;16.402;2022-08-01T09:21:11;4.00;;;3.67;;
13868;SDS011;7004;48.206;16.402;2022-08-01T09:23:42;3.70;;;3.47;;
13868;SDS011;7004;48.206;16.402;2022-08-01T09:26:11;3.87;;;3.53;;
13868;SDS011;7004;48.206;16.402;2022-08-01T09:28:43;3.87;;;3.57;;
13868;SDS011;7004;48.206;16.402;2022-08-01T09:31:12;5.37;;;3.70;;
13868;SDS011;7004;48.206;16.402;2022-08-01T09:33:50;3.80;;;3.20;;
13868;SDS011;7004;48.206;16.402;2022-08-01T09:36:18;3.83;;;3.53;;
13868;SDS011;7004;48.206;16.402;2022-08-01T09:38:50;5.27;;;3.70;;
13868;SDS011;7004;48.206;16.402;2022-08-01T09:41:28;4.23;;;3.53;;
13868;SDS011;7004;48.206;16.402;2022-08-01T09:43:58;4.17;;;3.80;;
13868;SDS011;7004;48.206;16.402;2022-08-01T09:46:24;5.33;;;3.60;;
13868;SDS011;7004;48.206;16.402;2022-08-01T09:49:09;5.20;;;3.77;;
13868;SDS011;7004;48.206;16.402;2022-08-01T09:51:36;3.70;;;3.40;;
13868;SDS011;7004;48.206;16.402;2022-08-01T09:54:05;6.03;;;3.70;;
13868;SDS011;7004;48.206;16.402;2022-08-01T09:56:41;4.33;;;3.83;;
13868;SDS011;7004;48.206;16.402;2022-08-01T09:59:08;5.53;;;3.60;;
13868;SDS011;7004;48.206;16.402;2022-08-01T10:01:42;3.77;;;3.40;;
13868;SDS011;7004;48.206;16.402;2022-08-01T10:04:17;3.90;;;3.50;;
13868;SDS011;7004;48.206;16.402;2022-08-01T10:06:46;4.00;;;3.60;;
13868;SDS011;7004;48.206;16.402;2022-08-01T10:09:27;4.70;;;3.57;;
13868;SDS011;7004;48.206;16.402;2022-08-01T10:11:56;4.40;;;3.30;;
13868;SDS011;7004;48.206;16.402;2022-08-01T10:14:24;4.20;;;3.80;;
13868;SDS011;7004;48.206;16.402;2022-08-01T10:16:53;5.23;;;4.07;;
13868;SDS011;7004;48.206;16.402;2022-08-01T10:19:23;5.03;;;3.73;;
13868;SDS011;7004;48.206;16.402;2022-08-01T10:21:53;4.70;;;3.90;;
13868;SDS011;7004;48.206;16.402;2022-08-01T10:24:21;4.13;;;3.73;;
13868;SDS011;7004;48.206;16.402;2022-08-01T10:26:51;5.23;;;3.93;;
13868;SDS011;7004;48.206;16.402;2022-08-01T10:29:24;4.40;;;4.00;;
13868;SDS011;7004;48.206;16.402;2022-08-01T10:31:52;4.37;;;3.90;;
13868;SDS011;7004;48.206;16.402;2022-08-01T10:34:18;8.53;;;4.60;;
13868;SDS011;7004;48.206;16.402;2022-08-01T10:36:45;6.73;;;4.10;;
13868;SDS011;7004;48.206;16.402;2022-08-01T10:39:13;4.27;;;3.73;;
13868;SDS011;7004;48.206;16.402;2022-08-01T10:41:39;5.27;;;4.20;;
13868;SDS011;7004;48.206;16.402;2022-08-01T10:44:07;9.33;;;3.90;;
13868;SDS011;7004;48.206;16.402;2022-08-01T10:46:34;6.03;;;3.97;;
13868;SDS011;7004;48.206;16.402;2022-08-01T10:49:07;6.43;;;3.90;;
13868;SDS011;7004;48.206;16.402;2022-08-01T10:51:40;5.23;;;3.67;;
13868;SDS011;7004;48.206;16.402;2022-08-01T10:54:08;4.00;;;3.70;;
13868;SDS011;7004;48.206;16.402;2022-08-01T10:56:46;4.47;;;3.53;;
13868;SDS011;7004;48.206;16.402;2022-08-01T10:59:21;6.47;;;4.10;;
13868;SDS011;7004;48.206;16.402;2022-08-01T11:01:57;4.10;;;3.67;;
13868;SDS011;7004;48.206;16.402;2022-08-01T11:04:33;4.43;;;4.03;;
13868;SDS011;7004;48.206;16.402;2022-08-01T11:07:06;5.93;;;3.60;;
13868;SDS011;7004;48.206;16.402;2022-08-01T11:09:40;4.17;;;3.70;;
13868;SDS011;7004;48.206;16.402;2022-08-01T11:12:13;4.00;;;3.60;;
13868;SDS011;7004;48.206;16.402;2022-08-01T11:15:24;3.90;;;3.50;;
13868;SDS011;7004;48.206;16.402;2022-08-01T11:17:34;3.57;;;3.27;;
13868;SDS011;7004;48.206;16.402;2022-08-01T11:20:14;5.03;;;3.60;;
13868;SDS011;7004;48.206;16.402;2022-08-01T11:30:43;4.07;;;3.70;;
13868;SDS011;7004;48.206;16.402;2022-08-01T11:33:16;4.07;;;3.70;;
13868;SDS011;7004;48.206;16.402;2022-08-01T11:38:42;5.03;;;4.53;;
13868;SDS011;7004;48.206;16.402;2022-08-01T11:41:24;4.40;;;3.97;;
13868;SDS011;7004;48.206;16.402;2022-08-01T11:57:29;4.57;;;3.60;;
13868;SDS011;7004;48.206;16.402;2022-08-01T12:00:03;4.07;;;3.73;;
13868;SDS011;7004;48.206;16.402;2022-08-01T12:02:45;5.13;;;3.70;;
13868;SDS011;7004;48.206;16.402;2022-08-01T12:05:21;6.03;;;3.70;;
13868;SDS011;7004;48.206;16.402;2022-08-01T12:07:49;4.83;;;3.57;;
13868;SDS011;7004;48.206;16.402;2022-08-01T12:10:17;3.83;;;3.47;;
13868;SDS011;7004;48.206;16.402;2022-08-01T12:12:46;4.40;;;3.83;;
13868;SDS011;7004;48.206;16.402;2022-08-01T12:15:18;6.03;;;4.37;;
13868;SDS011;7004;48.206;16.402;2022-08-01T12:17:48;5.63;;;4.20;;
13868;SDS011;7004;48.206;16.402;2022-08-01T12:20:21;4.73;;;4.10;;
13868;SDS011;7004;48.206;16.402;2022-08-01T12:22:56;4.60;;;4.23;;
13868;SDS011;7004;48.206;16.402;2022-08-01T12:25:53;4.53;;;4.10;;
13868;SDS011;7004;48.206;16.402;2022-08-01T12:28:19;6.40;;;4.37;;
13868;SDS011;7004;48.206;16.402;2022-08-01T12:30:47;6.20;;;4.57;;
13868;SDS011;7004;48.206;16.402;2022-08-01T12:33:16;7.30;;;4.20;;
13868;SDS011;7004;48.206;16.402;2022-08-01T12:35:45;7.80;;;3.83;;
13868;SDS011;7004;48.206;16.402;2022-08-01T12:38:15;5.60;;;4.30;;
13868;SDS011;7004;48.206;16.402;2022-08-01T12:40:45;5.20;;;3.67;;
13868;SDS011;7004;48.206;16.402;2022-08-01T12:43:17;4.13;;;3.20;;
13868;SDS011;7004;48.206;16.402;2022-08-01T12:45:46;4.53;;;2.70;;
13868;SDS011;7004;48.206;16.402;2022-08-01T12:48:17;2.90;;;2.60;;
13868;SDS011;7004;48.206;16.402;2022-08-01T12:50:48;3.80;;;2.27;;
13868;SDS011;7004;48.206;16.402;2022-08-01T12:53:15;2.80;;;2.30;;
13868;SDS011;7004;48.206;16.402;2022-08-01T12:55:45;3.63;;;2.60;;
13868;SDS011;7004;48.206;16.402;2022-08-01T12:58:15;2.60;;;2.40;;
13868;SDS011;7004;48.206;16.402;2022-08-01T13:00:45;2.53;;;2.30;;
13868;SDS011;7004;48.206;16.402;2022-08-01T13:03:18;3.80;;;2.77;;
13868;SDS011;7004;48.206;16.402;2022-08-01T13:05:49;2.67;;;2.43;;
13868;SDS011;7004;48.206;16.402;2022-08-01T13:08:29;3.97;;;2.73;;
13868;SDS011;7004;48.206;16.402;2022-08-01T13:11:09;5.53;;;2.87;;
13868;SDS011;7004;48.206;16.402;2022-08-01T13:13:40;3.20;;;3.00;;
13868;SDS011;7004;48.206;16.402;2022-08-01T13:16:22;4.57;;;3.10;;
13868;SDS011;7004;48.206;16.402;2022-08-01T13:18:52;4.13;;;3.00;;
13868;SDS011;7004;48.206;16.402;2022-08-01T13:21:22;5.00;;;3.60;;
13868;SDS011;7004;48.206;16.402;2022-08-01T13:24:07;4.13;;;3.20;;
13868;SDS011;7004;48.206;16.402;2022-08-01T13:29:14;4.07;;;3.67;;
13868;SDS011;7004;48.206;16.402;2022-08-01T13:31:46;4.23;;;3.80;;
13868;SDS011;7004;48.206;16.402;2022-08-01T13:34:12;3.70;;;3.40;;
13868;SDS011;7004;48.206;16.402;2022-08-01T13:36:39;4.50;;;4.03;;
13868;SDS011;7004;48.206;16.402;2022-08-01T13:39:06;6.33;;;4.20;;
13868;SDS011;7004;48.206;16.402;2022-08-01T13:41:51;4.23;;;3.83;;
13868;SDS011;7004;48.206;16.402;2022-08-01T13:44:18;4.67;;;3.63;;
13868;SDS011;7004;48.206;16.402;2022-08-01T13:46:44;5.70;;;3.00;;
13868;SDS011;7004;48.206;16.402;2022-08-01T13:49:14;3.30;;;3.00;;
13868;SDS011;7004;48.206;16.402;2022-08-01T13:51:41;4.07;;;3.63;;
13868;SDS011;7004;48.206;16.402;2022-08-01T13:54:07;4.60;;;3.13;;
13868;SDS011;7004;48.206;16.402;2022-08-01T13:56:33;3.30;;;3.00;;
13868;SDS011;7004;48.206;16.402;2022-08-01T13:59:00;5.53;;;2.70;;
13868;SDS011;7004;48.206;16.402;2022-08-01T14:01:26;2.57;;;2.37;;
13868;SDS011;7004;48.206;16.402;2022-08-01T14:03:52;2.23;;;2.03;;
13868;SDS011;7004;48.206;16.402;2022-08-01T14:06:19;2.60;;;2.40;;
13868;SDS011;7004;48.206;16.402;2022-08-01T14:08:47;3.60;;;2.30;;
13868;SDS011;7004;48.206;16.402;2022-08-01T14:11:14;4.07;;;2.50;;
13868;SDS011;7004;48.206;16.402;2022-08-01T14:13:42;4.00;;;2.10;;
13868;SDS011;7004;48.206;16.402;2022-08-01T14:16:08;6.70;;;2.23;;
13868;SDS011;7004;48.206;16.402;2022-08-01T14:18:34;3.13;;;2.57;;
13868;SDS011;7004;48.206;16.402;2022-08-01T14:21:00;6.07;;;2.30;;
13868;SDS011;7004;48.206;16.402;2022-08-01T14:23:27;2.70;;;2.40;;
13868;SDS011;7004;48.206;16.402;2022-08-01T14:25:53;4.27;;;2.30;;
13868;SDS011;7004;48.206;16.402;2022-08-01T14:28:19;6.13;;;2.50;;
13868;SDS011;7004;48.206;16.402;2022-08-01T14:30:46;2.50;;;2.30;;
13868;SDS011;7004;48.206;16.402;2022-08-01T14:33:13;6.27;;;2.50;;
13868;SDS011;7004;48.206;16.402;2022-08-01T14:35:39;2.30;;;2.10;;
13868;SDS011;7004;48.206;16.402;2022-08-01T14:38:06;2.47;;;2.27;;
13868;SDS011;7004;48.206;16.402;2022-08-01T14:40:33;5.03;;;2.20;;
13868;SDS011;7004;48.206;16.402;2022-08-01T14:43:00;3.13;;;2.30;;
13868;SDS011;7004;48.206;16.402;2022-08-01T14:45:26;4.90;;;2.43;;
13868;SDS011;7004;48.206;16.402;2022-08-01T14:47:53;2.40;;;2.20;;
13868;SDS011;7004;48.206;16.402;2022-08-01T14:50:19;4.30;;;2.50;;
13868;SDS011;7004;48.206;16.402;2022-08-01T14:52:46;2.50;;;2.30;;
13868;SDS011;7004;48.206;16.402;2022-08-01T14:55:12;2.87;;;2.47;;
13868;SDS011;7004;48.206;16.402;2022-08-01T14:57:41;3.13;;;2.60;;
13868;SDS011;7004;48.206;16.402;2022-08-01T15:00:08;2.63;;;2.43;;
13868;SDS011;7004;48.206;16.402;2022-08-01T15:02:38;2.70;;;2.50;;
13868;SDS011;7004;48.206;16.402;2022-08-01T15:05:05;3.43;;;2.63;;
13868;SDS011;7004;48.206;16.402;2022-08-01T15:07:32;2.90;;;2.70;;
13868;SDS011;7004;48.206;16.402;2022-08-01T15:09:59;2.93;;;2.70;;
13868;SDS011;7004;48.206;16.402;2022-08-01T15:12:25;3.70;;;2.60;;
13868;SDS011;7004;48.206;16.402;2022-08-01T15:14:51;2.80;;;2.60;;
13868;SDS011;7004;48.206;16.402;2022-08-01T15:17:24;5.63;;;3.00;;
13868;SDS011;7004;48.206;16.402;2022-08-01T15:19:58;3.43;;;3.10;;
13868;SDS011;7004;48.206;16.402;2022-08-01T15:22:27;6.30;;;3.30;;
13868;SDS011;7004;48.206;16.402;2022-08-01T15:24:55;3.80;;;3.23;;
13868;SDS011;7004;48.206;16.402;2022-08-01T15:27:23;3.90;;;2.83;;
13868;SDS011;7004;48.206;16.402;2022-08-01T15:29:50;3.07;;;2.77;;
13868;SDS011;7004;48.206;16.402;2022-08-01T15:32:17;4.40;;;2.80;;
13868;SDS011;7004;48.206;16.402;2022-08-01T15:34:43;3.20;;;2.90;;
13868;SDS011;7004;48.206;16.402;2022-08-01T15:37:10;3.53;;;2.70;;
13868;SDS011;7004;48.206;16.402;2022-08-01T15:39:36;6.97;;;4.73;;
13868;SDS011;7004;48.206;16.402;2022-08-01T15:42:08;3.87;;;3.07;;